sensor_id;sensor_type;location;lat;lon;timestamp;temperature;humidity
38854;DHT22;24606;51.992;4.198;2023-08-17T00:00:18;28.70;59.90
38854;DHT22;24606;51.992;4.198;2023-08-17T00:05:20;28.60;60.00
38854;DHT22;24606;51.992;4.198;2023-08-17T00:10:22;28.50;59.80
38854;DHT22;24606;51.992;4.198;2023-08-17T00:15:26;28.50;60.00
38854;DHT22;24606;51.992;4.198;2023-08-17T00:20:27;28.50;60.20
38854;DHT22;24606;51.992;4.198;2023-08-17T00:25:29;28.50;60.10
38854;DHT22;24606;51.992;4.198;2023-08-17T00:30:32;28.50;60.20
38854;DHT22;24606;51.992;4.198;2023-08-17T00:35:36;28.40;60.20
38854;DHT22;24606;51.992;4.198;2023-08-17T00:40:40;28.40;60.00
38854;DHT22;24606;51.992;4.198;2023-08-17T00:45:45;28.40;60.40
38854;DHT22;24606;51.992;4.198;2023-08-17T00:50:49;28.30;60.40
38854;DHT22;24606;51.992;4.198;2023-08-17T00:55:52;28.30;60.40
38854;DHT22;24606;51.992;4.198;2023-08-17T01:00:56;28.30;60.20
38854;DHT22;24606;51.992;4.198;2023-08-17T01:06:01;28.30;60.40
38854;DHT22;24606;51.992;4.198;2023-08-17T01:11:11;28.20;60.60
38854;DHT22;24606;51.992;4.198;2023-08-17T01:16:24;28.30;60.50
38854;DHT22;24606;51.992;4.198;2023-08-17T01:21:36;28.20;60.20
38854;DHT22;24606;51.992;4.198;2023-08-17T01:26:40;28.20;60.70
38854;DHT22;24606;51.992;4.198;2023-08-17T01:31:51;28.10;60.50
38854;DHT22;24606;51.992;4.198;2023-08-17T01:36:58;28.10;60.20
38854;DHT22;24606;51.992;4.198;2023-08-17T01:42:04;28.00;60.50
38854;DHT22;24606;51.992;4.198;2023-08-17T01:47:06;28.00;60.70
38854;DHT22;24606;51.992;4.198;2023-08-17T01:52:08;28.00;60.60
38854;DHT22;24606;51.992;4.198;2023-08-17T01:57:13;28.00;60.40
38854;DHT22;24606;51.992;4.198;2023-08-17T02:02:15;28.00;60.80
38854;DHT22;24606;51.992;4.198;2023-08-17T02:07:17;27.90;60.70
38854;DHT22;24606;51.992;4.198;2023-08-17T02:12:24;27.90;60.80
38854;DHT22;24606;51.992;4.198;2023-08-17T02:17:26;27.90;60.80
38854;DHT22;24606;51.992;4.198;2023-08-17T02:22:30;27.90;60.60
38854;DHT22;24606;51.992;4.198;2023-08-17T02:27:33;27.80;60.40
38854;DHT22;24606;51.992;4.198;2023-08-17T02:32:35;27.80;60.70
38854;DHT22;24606;51.992;4.198;2023-08-17T02:37:37;27.80;60.80
38854;DHT22;24606;51.992;4.198;2023-08-17T02:42:40;27.80;60.80
38854;DHT22;24606;51.992;4.198;2023-08-17T02:47:42;27.80;60.90
38854;DHT22;24606;51.992;4.198;2023-08-17T02:52:44;27.70;60.50
38854;DHT22;24606;51.992;4.198;2023-08-17T03:15:30;27.40;60.90
38854;DHT22;24606;51.992;4.198;2023-08-17T03:20:31;27.50;61.10
38854;DHT22;24606;51.992;4.198;2023-08-17T03:25:34;27.50;60.90
38854;DHT22;24606;51.992;4.198;2023-08-17T03:30:37;27.40;60.80
38854;DHT22;24606;51.992;4.198;2023-08-17T03:35:38;27.50;61.80
38854;DHT22;24606;51.992;4.198;2023-08-17T03:40:40;27.50;61.10
38854;DHT22;24606;51.992;4.198;2023-08-17T03:45:43;27.40;60.90
38854;DHT22;24606;51.992;4.198;2023-08-17T03:50:45;27.40;60.90
38854;DHT22;24606;51.992;4.198;2023-08-17T03:55:47;27.40;61.20
38854;DHT22;24606;51.992;4.198;2023-08-17T04:00:51;27.30;61.10
38854;DHT22;24606;51.992;4.198;2023-08-17T04:05:53;27.30;60.80
38854;DHT22;24606;51.992;4.198;2023-08-17T04:10:55;27.30;61.10
38854;DHT22;24606;51.992;4.198;2023-08-17T04:16:01;27.30;60.90
38854;DHT22;24606;51.992;4.198;2023-08-17T04:21:03;27.30;61.10
38854;DHT22;24606;51.992;4.198;2023-08-17T04:26:06;27.30;61.00
38854;DHT22;24606;51.992;4.198;2023-08-17T04:31:09;27.40;61.10
38854;DHT22;24606;51.992;4.198;2023-08-17T04:36:11;27.30;61.10
38854;DHT22;24606;51.992;4.198;2023-08-17T04:41:13;27.40;61.20
38854;DHT22;24606;51.992;4.198;2023-08-17T04:46:16;27.30;61.20
38854;DHT22;24606;51.992;4.198;2023-08-17T04:51:21;27.30;61.20
38854;DHT22;24606;51.992;4.198;2023-08-17T04:56:23;27.30;61.30
38854;DHT22;24606;51.992;4.198;2023-08-17T05:01:26;27.30;61.20
38854;DHT22;24606;51.992;4.198;2023-08-17T05:06:28;27.30;61.20
38854;DHT22;24606;51.992;4.198;2023-08-17T05:11:30;27.20;61.20
38854;DHT22;24606;51.992;4.198;2023-08-17T05:16:33;27.20;61.20
38854;DHT22;24606;51.992;4.198;2023-08-17T05:21:35;27.20;61.20
38854;DHT22;24606;51.992;4.198;2023-08-17T05:26:37;27.20;61.80
38854;DHT22;24606;51.992;4.198;2023-08-17T05:31:40;27.30;61.20
38854;DHT22;24606;51.992;4.198;2023-08-17T05:36:43;27.20;61.20
38854;DHT22;24606;51.992;4.198;2023-08-17T05:41:44;27.20;61.10
38854;DHT22;24606;51.992;4.198;2023-08-17T05:46:47;27.30;61.10
38854;DHT22;24606;51.992;4.198;2023-08-17T05:51:49;27.20;61.00
38854;DHT22;24606;51.992;4.198;2023-08-17T05:56:51;27.20;60.90
38854;DHT22;24606;51.992;4.198;2023-08-17T06:01:54;27.20;61.40
38854;DHT22;24606;51.992;4.198;2023-08-17T06:06:56;27.20;60.80
38854;DHT22;24606;51.992;4.198;2023-08-17T06:11:58;27.20;60.80
38854;DHT22;24606;51.992;4.198;2023-08-17T06:17:03;27.20;60.90
38854;DHT22;24606;51.992;4.198;2023-08-17T06:22:05;27.20;60.80
38854;DHT22;24606;51.992;4.198;2023-08-17T06:27:07;27.20;60.90
38854;DHT22;24606;51.992;4.198;2023-08-17T06:32:10;27.20;60.70
38854;DHT22;24606;51.992;4.198;2023-08-17T06:37:12;27.20;60.60
38854;DHT22;24606;51.992;4.198;2023-08-17T06:42:14;27.20;60.70
38854;DHT22;24606;51.992;4.198;2023-08-17T06:47:17;27.20;60.50
38854;DHT22;24606;51.992;4.198;2023-08-17T06:52:20;27.20;60.50
38854;DHT22;24606;51.992;4.198;2023-08-17T06:57:22;27.20;60.60
38854;DHT22;24606;51.992;4.198;2023-08-17T07:02:26;27.20;60.60
38854;DHT22;24606;51.992;4.198;2023-08-17T07:07:28;27.20;60.70
38854;DHT22;24606;51.992;4.198;2023-08-17T07:12:33;27.10;61.20
38854;DHT22;24606;51.992;4.198;2023-08-17T07:17:36;27.20;60.70
38854;DHT22;24606;51.992;4.198;2023-08-17T07:22:40;27.20;60.70
38854;DHT22;24606;51.992;4.198;2023-08-17T07:27:44;27.10;60.80
38854;DHT22;24606;51.992;4.198;2023-08-17T07:32:49;27.20;60.70
38854;DHT22;24606;51.992;4.198;2023-08-17T07:37:51;27.10;60.60
38854;DHT22;24606;51.992;4.198;2023-08-17T07:42:53;27.20;60.30
38854;DHT22;24606;51.992;4.198;2023-08-17T07:47:56;27.20;60.10
38854;DHT22;24606;51.992;4.198;2023-08-17T07:52:58;27.20;60.00
38854;DHT22;24606;51.992;4.198;2023-08-17T07:58:00;27.30;60.00
38854;DHT22;24606;51.992;4.198;2023-08-17T08:03:07;27.30;59.80
38854;DHT22;24606;51.992;4.198;2023-08-17T08:08:10;27.40;59.70
38854;DHT22;24606;51.992;4.198;2023-08-17T08:13:15;27.40;59.60
38854;DHT22;24606;51.992;4.198;2023-08-17T08:18:18;27.50;59.50
38854;DHT22;24606;51.992;4.198;2023-08-17T08:23:20;27.50;59.40
38854;DHT22;24606;51.992;4.198;2023-08-17T08:28:22;27.60;59.30
38854;DHT22;24606;51.992;4.198;2023-08-17T08:33:25;27.60;59.30
38854;DHT22;24606;51.992;4.198;2023-08-17T08:38:27;27.60;59.20
38854;DHT22;24606;51.992;4.198;2023-08-17T08:43:29;27.70;59.10
38854;DHT22;24606;51.992;4.198;2023-08-17T08:48:34;27.60;59.10
38854;DHT22;24606;51.992;4.198;2023-08-17T08:53:38;27.70;59.10
38854;DHT22;24606;51.992;4.198;2023-08-17T08:58:40;27.70;59.00
38854;DHT22;24606;51.992;4.198;2023-08-17T09:03:46;27.50;59.40
38854;DHT22;24606;51.992;4.198;2023-08-17T09:08:49;27.70;59.20
38854;DHT22;24606;51.992;4.198;2023-08-17T09:13:53;27.80;59.10
38854;DHT22;24606;51.992;4.198;2023-08-17T09:18:56;27.70;59.20
38854;DHT22;24606;51.992;4.198;2023-08-17T09:23:58;27.70;59.20
38854;DHT22;24606;51.992;4.198;2023-08-17T09:29:00;27.80;59.40
38854;DHT22;24606;51.992;4.198;2023-08-17T09:34:05;27.70;59.40
38854;DHT22;24606;51.992;4.198;2023-08-17T09:39:08;27.80;59.30
38854;DHT22;24606;51.992;4.198;2023-08-17T09:44:11;27.80;59.50
38854;DHT22;24606;51.992;4.198;2023-08-17T09:49:14;27.90;59.40
38854;DHT22;24606;51.992;4.198;2023-08-17T09:54:23;28.10;58.90
38854;DHT22;24606;51.992;4.198;2023-08-17T09:59:27;27.90;59.00
38854;DHT22;24606;51.992;4.198;2023-08-17T10:04:32;27.90;59.10
38854;DHT22;24606;51.992;4.198;2023-08-17T10:09:39;27.90;59.10
38854;DHT22;24606;51.992;4.198;2023-08-17T10:14:48;28.00;59.10
38854;DHT22;24606;51.992;4.198;2023-08-17T10:19:54;28.00;59.10
38854;DHT22;24606;51.992;4.198;2023-08-17T10:24:58;28.00;59.10
38854;DHT22;24606;51.992;4.198;2023-08-17T10:30:02;28.20;58.80
38854;DHT22;24606;51.992;4.198;2023-08-17T10:35:06;28.10;58.90
38854;DHT22;24606;51.992;4.198;2023-08-17T10:40:09;28.20;59.00
38854;DHT22;24606;51.992;4.198;2023-08-17T10:45:30;28.00;59.00
38854;DHT22;24606;51.992;4.198;2023-08-17T10:50:33;28.30;58.50
38854;DHT22;24606;51.992;4.198;2023-08-17T10:55:37;28.20;59.00
38854;DHT22;24606;51.992;4.198;2023-08-17T11:00:40;28.20;58.70
38854;DHT22;24606;51.992;4.198;2023-08-17T11:05:45;28.20;59.30
38854;DHT22;24606;51.992;4.198;2023-08-17T11:10:58;28.30;58.70
38854;DHT22;24606;51.992;4.198;2023-08-17T11:16:01;28.30;58.70
38854;DHT22;24606;51.992;4.198;2023-08-17T11:21:05;28.50;58.50
38854;DHT22;24606;51.992;4.198;2023-08-17T11:26:08;28.50;58.50
38854;DHT22;24606;51.992;4.198;2023-08-17T11:31:12;28.80;58.10
38854;DHT22;24606;51.992;4.198;2023-08-17T11:36:16;29.00;57.70
38854;DHT22;24606;51.992;4.198;2023-08-17T11:41:19;28.60;58.40
38854;DHT22;24606;51.992;4.198;2023-08-17T11:46:21;28.90;58.40
38854;DHT22;24606;51.992;4.198;2023-08-17T11:51:29;28.70;58.20
38854;DHT22;24606;51.992;4.198;2023-08-17T11:56:31;28.80;58.40
38854;DHT22;24606;51.992;4.198;2023-08-17T12:01:33;29.00;58.00
38854;DHT22;24606;51.992;4.198;2023-08-17T12:06:43;29.00;57.90
38854;DHT22;24606;51.992;4.198;2023-08-17T12:11:45;29.00;58.00
38854;DHT22;24606;51.992;4.198;2023-08-17T12:16:48;28.90;58.00
38854;DHT22;24606;51.992;4.198;2023-08-17T12:21:51;29.30;57.30
38854;DHT22;24606;51.992;4.198;2023-08-17T12:26:57;29.20;57.40
38854;DHT22;24606;51.992;4.198;2023-08-17T12:31:59;29.10;57.90
38854;DHT22;24606;51.992;4.198;2023-08-17T12:37:03;29.20;57.70
38854;DHT22;24606;51.992;4.198;2023-08-17T12:42:05;29.20;57.90
38854;DHT22;24606;51.992;4.198;2023-08-17T12:47:07;29.20;57.80
38854;DHT22;24606;51.992;4.198;2023-08-17T12:52:11;29.10;58.00
38854;DHT22;24606;51.992;4.198;2023-08-17T12:57:12;29.10;58.10
38854;DHT22;24606;51.992;4.198;2023-08-17T13:02:14;29.50;57.30
38854;DHT22;24606;51.992;4.198;2023-08-17T13:07:17;30.00;56.80
38854;DHT22;24606;51.992;4.198;2023-08-17T13:12:19;30.20;57.20
38854;DHT22;24606;51.992;4.198;2023-08-17T13:17:21;30.40;56.80
38854;DHT22;24606;51.992;4.198;2023-08-17T13:22:27;30.70;56.70
38854;DHT22;24606;51.992;4.198;2023-08-17T13:27:29;30.40;56.10
38854;DHT22;24606;51.992;4.198;2023-08-17T13:32:31;30.30;56.80
38854;DHT22;24606;51.992;4.198;2023-08-17T13:37:36;30.10;57.10
38854;DHT22;24606;51.992;4.198;2023-08-17T13:42:38;30.10;57.10
38854;DHT22;24606;51.992;4.198;2023-08-17T13:47:40;30.30;57.00
38854;DHT22;24606;51.992;4.198;2023-08-17T13:52:43;30.00;57.40
38854;DHT22;24606;51.992;4.198;2023-08-17T13:57:45;30.00;57.30
38854;DHT22;24606;51.992;4.198;2023-08-17T14:02:47;30.00;57.40
38854;DHT22;24606;51.992;4.198;2023-08-17T14:07:50;30.00;57.60
38854;DHT22;24606;51.992;4.198;2023-08-17T14:12:52;30.00;57.50
38854;DHT22;24606;51.992;4.198;2023-08-17T14:17:53;30.00;57.50
38854;DHT22;24606;51.992;4.198;2023-08-17T14:22:57;30.00;57.60
38854;DHT22;24606;51.992;4.198;2023-08-17T14:27:58;30.00;57.50
38854;DHT22;24606;51.992;4.198;2023-08-17T14:33:00;30.00;58.50
38854;DHT22;24606;51.992;4.198;2023-08-17T14:38:04;29.90;58.00
38854;DHT22;24606;51.992;4.198;2023-08-17T14:43:05;30.00;57.90
38854;DHT22;24606;51.992;4.198;2023-08-17T14:48:10;30.00;58.10
38854;DHT22;24606;51.992;4.198;2023-08-17T14:53:14;30.00;57.80
38854;DHT22;24606;51.992;4.198;2023-08-17T14:58:16;30.00;57.80
38854;DHT22;24606;51.992;4.198;2023-08-17T15:03:19;30.00;57.90
38854;DHT22;24606;51.992;4.198;2023-08-17T15:08:22;30.00;58.00
38854;DHT22;24606;51.992;4.198;2023-08-17T15:13:24;29.90;58.10
38854;DHT22;24606;51.992;4.198;2023-08-17T15:18:28;29.90;58.10
38854;DHT22;24606;51.992;4.198;2023-08-17T15:23:31;29.90;58.20
38854;DHT22;24606;51.992;4.198;2023-08-17T15:28:33;29.90;58.10
38854;DHT22;24606;51.992;4.198;2023-08-17T15:33:36;29.90;58.40
38854;DHT22;24606;51.992;4.198;2023-08-17T15:38:39;29.80;58.40
38854;DHT22;24606;51.992;4.198;2023-08-17T15:43:41;29.70;58.50
38854;DHT22;24606;51.992;4.198;2023-08-17T15:48:43;29.60;58.70
38854;DHT22;24606;51.992;4.198;2023-08-17T15:53:46;29.70;59.30
38854;DHT22;24606;51.992;4.198;2023-08-17T15:58:48;29.70;58.70
38854;DHT22;24606;51.992;4.198;2023-08-17T16:03:50;29.70;58.70
38854;DHT22;24606;51.992;4.198;2023-08-17T16:08:54;29.70;59.00
38854;DHT22;24606;51.992;4.198;2023-08-17T16:13:56;29.60;59.10
38854;DHT22;24606;51.992;4.198;2023-08-17T16:19:00;29.60;59.40
38854;DHT22;24606;51.992;4.198;2023-08-17T16:24:03;29.60;59.40
38854;DHT22;24606;51.992;4.198;2023-08-17T16:29:05;29.50;60.00
38854;DHT22;24606;51.992;4.198;2023-08-17T16:34:09;29.50;59.70
38854;DHT22;24606;51.992;4.198;2023-08-17T16:39:12;29.50;59.90
38854;DHT22;24606;51.992;4.198;2023-08-17T16:44:14;29.50;59.80
38854;DHT22;24606;51.992;4.198;2023-08-17T16:49:16;29.50;59.80
38854;DHT22;24606;51.992;4.198;2023-08-17T16:54:19;29.50;59.90
38854;DHT22;24606;51.992;4.198;2023-08-17T16:59:21;29.40;59.90
38854;DHT22;24606;51.992;4.198;2023-08-17T17:04:23;29.50;59.90
38854;DHT22;24606;51.992;4.198;2023-08-17T17:09:26;29.50;59.90
38854;DHT22;24606;51.992;4.198;2023-08-17T17:14:29;29.40;60.00
38854;DHT22;24606;51.992;4.198;2023-08-17T17:19:30;29.40;60.00
38854;DHT22;24606;51.992;4.198;2023-08-17T17:24:34;29.50;60.20
38854;DHT22;24606;51.992;4.198;2023-08-17T17:29:35;29.30;60.30
38854;DHT22;24606;51.992;4.198;2023-08-17T17:34:37;29.30;60.20
38854;DHT22;24606;51.992;4.198;2023-08-17T17:39:43;29.30;60.30
38854;DHT22;24606;51.992;4.198;2023-08-17T17:44:45;29.30;60.40
38854;DHT22;24606;51.992;4.198;2023-08-17T17:49:46;29.30;60.50
38854;DHT22;24606;51.992;4.198;2023-08-17T17:54:50;29.30;60.60
38854;DHT22;24606;51.992;4.198;2023-08-17T17:59:51;29.30;60.80
38854;DHT22;24606;51.992;4.198;2023-08-17T18:04:54;29.20;60.80
38854;DHT22;24606;51.992;4.198;2023-08-17T18:09:58;29.30;61.40
38854;DHT22;24606;51.992;4.198;2023-08-17T18:15:01;29.20;63.20
38854;DHT22;24606;51.992;4.198;2023-08-17T18:20:03;29.20;61.50
38854;DHT22;24606;51.992;4.198;2023-08-17T18:25:07;29.20;61.60
38854;DHT22;24606;51.992;4.198;2023-08-17T18:30:10;29.20;61.70
38854;DHT22;24606;51.992;4.198;2023-08-17T18:35:14;29.20;61.80
38854;DHT22;24606;51.992;4.198;2023-08-17T18:40:17;29.10;61.90
38854;DHT22;24606;51.992;4.198;2023-08-17T18:45:20;29.10;62.00
38854;DHT22;24606;51.992;4.198;2023-08-17T18:50:23;29.10;62.00
38854;DHT22;24606;51.992;4.198;2023-08-17T18:55:27;29.10;62.10
38854;DHT22;24606;51.992;4.198;2023-08-17T19:00:30;29.10;62.10
38854;DHT22;24606;51.992;4.198;2023-08-17T19:05:32;29.00;62.30
38854;DHT22;24606;51.992;4.198;2023-08-17T19:10:36;29.00;62.30
38854;DHT22;24606;51.992;4.198;2023-08-17T19:15:38;29.00;62.40
38854;DHT22;24606;51.992;4.198;2023-08-17T19:20:40;29.00;62.70
38854;DHT22;24606;51.992;4.198;2023-08-17T19:25:43;29.00;62.50
38854;DHT22;24606;51.992;4.198;2023-08-17T19:30:46;29.00;62.40
38854;DHT22;24606;51.992;4.198;2023-08-17T19:35:48;29.00;62.40
38854;DHT22;24606;51.992;4.198;2023-08-17T19:40:51;29.00;62.60
38854;DHT22;24606;51.992;4.198;2023-08-17T19:45:53;28.90;62.30
38854;DHT22;24606;51.992;4.198;2023-08-17T19:50:55;28.90;62.30
38854;DHT22;24606;51.992;4.198;2023-08-17T19:55:58;28.90;62.30
38854;DHT22;24606;51.992;4.198;2023-08-17T20:01:03;28.90;62.30
38854;DHT22;24606;51.992;4.198;2023-08-17T20:06:06;28.80;62.30
38854;DHT22;24606;51.992;4.198;2023-08-17T20:11:10;28.80;62.30
38854;DHT22;24606;51.992;4.198;2023-08-17T20:16:12;28.80;62.30
38854;DHT22;24606;51.992;4.198;2023-08-17T20:21:14;28.80;62.30
38854;DHT22;24606;51.992;4.198;2023-08-17T20:26:17;28.80;62.30
38854;DHT22;24606;51.992;4.198;2023-08-17T20:31:19;28.70;62.30
38854;DHT22;24606;51.992;4.198;2023-08-17T20:36:23;28.70;62.30
38854;DHT22;24606;51.992;4.198;2023-08-17T20:41:26;28.70;62.40
38854;DHT22;24606;51.992;4.198;2023-08-17T20:46:28;28.70;62.40
38854;DHT22;24606;51.992;4.198;2023-08-17T20:51:30;28.70;62.40
38854;DHT22;24606;51.992;4.198;2023-08-17T20:56:34;28.60;62.50
38854;DHT22;24606;51.992;4.198;2023-08-17T21:01:35;28.60;62.60
38854;DHT22;24606;51.992;4.198;2023-08-17T21:06:38;28.60;62.70
38854;DHT22;24606;51.992;4.198;2023-08-17T21:11:43;28.60;62.90
38854;DHT22;24606;51.992;4.198;2023-08-17T21:16:45;28.50;63.00
38854;DHT22;24606;51.992;4.198;2023-08-17T21:21:46;28.50;63.00
38854;DHT22;24606;51.992;4.198;2023-08-17T21:26:50;28.50;63.10
38854;DHT22;24606;51.992;4.198;2023-08-17T21:31:51;28.50;63.10
38854;DHT22;24606;51.992;4.198;2023-08-17T21:36:53;28.50;63.20
38854;DHT22;24606;51.992;4.198;2023-08-17T21:41:56;28.40;63.20
38854;DHT22;24606;51.992;4.198;2023-08-17T21:46:58;28.40;63.20
38854;DHT22;24606;51.992;4.198;2023-08-17T21:52:00;28.40;63.20
38854;DHT22;24606;51.992;4.198;2023-08-17T21:57:03;28.40;63.20
38854;DHT22;24606;51.992;4.198;2023-08-17T22:02:05;28.40;63.30
38854;DHT22;24606;51.992;4.198;2023-08-17T22:07:07;28.40;63.40
38854;DHT22;24606;51.992;4.198;2023-08-17T22:12:10;28.30;63.30
38854;DHT22;24606;51.992;4.198;2023-08-17T22:17:12;28.30;63.30
38854;DHT22;24606;51.992;4.198;2023-08-17T22:22:14;28.30;63.40
38854;DHT22;24606;51.992;4.198;2023-08-17T22:27:20;28.30;63.50
38854;DHT22;24606;51.992;4.198;2023-08-17T22:32:22;28.30;63.60
38854;DHT22;24606;51.992;4.198;2023-08-17T22:37:23;28.30;63.70
38854;DHT22;24606;51.992;4.198;2023-08-17T22:42:28;28.30;63.70
38854;DHT22;24606;51.992;4.198;2023-08-17T22:47:33;28.30;63.90
38854;DHT22;24606;51.992;4.198;2023-08-17T22:52:38;28.20;63.80
38854;DHT22;24606;51.992;4.198;2023-08-17T22:57:41;28.20;63.70
38854;DHT22;24606;51.992;4.198;2023-08-17T23:02:43;28.10;64.10
38854;DHT22;24606;51.992;4.198;2023-08-17T23:07:45;28.20;64.20
38854;DHT22;24606;51.992;4.198;2023-08-17T23:12:48;28.20;64.40
38854;DHT22;24606;51.992;4.198;2023-08-17T23:17:50;28.10;64.40
38854;DHT22;24606;51.992;4.198;2023-08-17T23:22:51;28.10;64.50
38854;DHT22;24606;51.992;4.198;2023-08-17T23:27:54;28.10;64.60
38854;DHT22;24606;51.992;4.198;2023-08-17T23:32:56;28.10;64.60
38854;DHT22;24606;51.992;4.198;2023-08-17T23:37:58;28.10;64.80
38854;DHT22;24606;51.992;4.198;2023-08-17T23:43:01;28.10;64.80
38854;DHT22;24606;51.992;4.198;2023-08-17T23:48:04;28.10;64.90
38854;DHT22;24606;51.992;4.198;2023-08-17T23:53:06;28.00;64.90
38854;DHT22;24606;51.992;4.198;2023-08-17T23:58:09;28.00;64.90
